Marian S Heiskell — WDD7538 — position and weather

sailwx.info

Track history (hours):
 
Tides and Currents Weather Stations Pressure Air Temp Water Temp Dewpoint Dewpoint Depression Visibility Wind Speed Wind Dir Waves Ship Positions

Marian S Heiskell

Owner: NYCL Acquisition LLC, Brooklyn, NY. More information available from US FCC via Universal Licensing System and Coast Guard Vessel Documentation Center.

Last reported at 2017-Nov-18 19:30 UTC. Time now 2017-Nov-18 19:34 UTC.
Position N 40°40' W 074°01'.

Type: Passenger vessel. MMSI: 367187770.

Date/timePositionNaut miles runAvg speedWind from/ knotsBaromVisibWave heightAir tempDewpointWater temp
2017-Nov-18 19:30N 40°40' W 074°01'2 3.5
2017-Nov-18 18:56N 40°42' W 074°00'2 4.6
2017-Nov-18 18:30N 40°40' W 074°01'1 2.0
2017-Nov-18 18:00N 40°41' W 074°01'1 1.7
2017-Nov-18 17:30N 40°41' W 074°01'0 0.6
2017-Nov-18 16:59N 40°40' W 074°01'2 4.0
2017-Nov-18 16:30N 40°42' W 074°00'2 0.1
2017-Nov-17 13:17N 40°40' W 074°01'0 0.0
2017-Nov-16 23:49N 40°40' W 074°01'2 5.7
2017-Nov-16 23:30N 40°42' W 074°01'2 4.0
2017-Nov-16 23:00N 40°44' W 074°01'2 4.0
2017-Nov-16 22:30N 40°42' W 074°00'3 6.8
2017-Nov-16 22:00N 40°46' W 074°00'3 6.8
2017-Nov-16 21:30N 40°42' W 073°60'1 2.8
2017-Nov-16 21:00N 40°43' W 074°01'2 4.4
2017-Nov-16 20:30N 40°41' W 074°02'1 2.9
2017-Nov-16 20:01N 40°42' W 074°01'1 2.6
2017-Nov-16 19:30N 40°41' W 074°02'2 3.9
2017-Nov-16 19:00N 40°42' W 074°00'3 6.8
2017-Nov-16 18:30N 40°46' W 074°00'3 6.9
2017-Nov-16 18:00N 40°42' W 073°60'2 3.1
2017-Nov-16 17:30N 40°43' W 074°01'2 4.8
2017-Nov-16 17:00N 40°41' W 074°03'2 2.7
2017-Nov-16 16:26N 40°42' W 074°01'1 2.7
2017-Nov-16 16:00N 40°43' W 074°01'2 2.4
2017-Nov-16 15:22N 40°42' W 074°01'4 9.9
2017-Nov-16 14:59N 40°46' W 074°00'5 0.4
2017-Nov-16 01:46N 40°40' W 074°01'2 8.0
2017-Nov-16 01:30N 40°42' W 074°00'1 2.9
2017-Nov-16 01:00N 40°42' W 074°02'1 2.8
2017-Nov-16 00:29N 40°42' W 074°00'2 0.9
2017-Nov-15 22:05N 40°40' W 074°01'112.8
2017-Nov-15 22:00N 40°41' W 074°01'1 1.8
2017-Nov-15 21:29N 40°42' W 074°00'1 2.9
2017-Nov-15 21:00N 40°42' W 074°02'1 2.8
2017-Nov-15 20:30N 40°42' W 074°00'0 0.2
2017-Nov-15 19:53N 40°42' W 074°00'1 3.4
2017-Nov-15 19:31N 40°43' W 074°02'1 1.2
2017-Nov-15 18:26N 40°42' W 074°00'1 3.2
2017-Nov-15 18:00N 40°42' W 074°02'1 2.7
2017-Nov-15 17:30N 40°42' W 074°00'0 0.0
2017-Nov-15 16:57N 40°42' W 074°00'1 3.4
2017-Nov-15 16:30N 40°42' W 074°02'1 2.9
2017-Nov-15 15:59N 40°42' W 074°00'1 1.1
2017-Nov-15 15:30N 40°42' W 074°00'  
2017-Nov-13 02:00N 40°40' W 074°01'1 1.3
2017-Nov-13 01:30N 40°41' W 074°01'0 0.8
2017-Nov-13 01:00N 40°41' W 074°01'1 1.8
2017-Nov-13 00:30N 40°40' W 074°01'2 4.0
2017-Nov-13 00:00N 40°42' W 074°00'2 4.0
2017-Nov-12 23:30N 40°40' W 074°01'1 2.1
2017-Nov-12 23:00N 40°41' W 074°01'0 0.5
2017-Nov-12 22:30N 40°41' W 074°01'1 1.6
2017-Nov-12 21:58N 40°40' W 074°01'2 4.3
2017-Nov-12 21:30N 40°42' W 074°00'1 2.6
2017-Nov-12 21:00N 40°41' W 074°01'1 1.5
2017-Nov-12 20:30N 40°40' W 074°01'2 3.3
2017-Nov-12 19:56N 40°42' W 074°00'2 4.1
2017-Nov-12 19:30N 40°40' W 074°01'2 3.8
2017-Nov-12 18:59N 40°42' W 074°00'2 4.1
2017-Nov-12 18:30N 40°40' W 074°01'1 2.2
2017-Nov-12 18:00N 40°41' W 074°01'0 0.1
2017-Nov-12 17:30N 40°41' W 074°01'1 1.7
2017-Nov-12 17:00N 40°40' W 074°01'2 3.2
2017-Nov-12 16:26N 40°42' W 074°00'2 0.1
2017-Nov-11 16:32N 40°40' W 074°01'0 4.0
2017-Nov-11 16:30N 40°40' W 074°01'0 0.1
2017-Nov-11 14:49N 40°40' W 074°01'0 0.0
2017-Nov-10 01:48N 40°40' W 074°01'2 7.2
2017-Nov-10 01:31N 40°42' W 074°00'1 3.0
2017-Nov-10 01:01N 40°42' W 074°02'1 2.9
2017-Nov-10 00:30N 40°42' W 074°00'0 0.0
2017-Nov-10 00:00N 40°42' W 074°00'0 0.0
2017-Nov-09 23:29N 40°42' W 074°00'0 0.0
2017-Nov-09 22:59N 40°42' W 074°00'2 3.8
2017-Nov-09 22:30N 40°42' W 074°02'2 3.7
2017-Nov-09 22:00N 40°42' W 074°00'0 0.2
2017-Nov-09 21:25N 40°42' W 074°00'2 5.3
2017-Nov-09 21:00N 40°41' W 074°03'2 4.2
2017-Nov-09 20:30N 40°42' W 074°00'0 0.0
2017-Nov-09 20:00N 40°42' W 074°00'2 4.3
2017-Nov-09 19:30N 40°41' W 074°03'2 4.1
2017-Nov-09 18:59N 40°42' W 074°00'0 0.1
2017-Nov-09 18:30N 40°42' W 074°00'2 3.9
2017-Nov-09 18:00N 40°41' W 074°02'2 1.9
2017-Nov-09 16:58N 40°42' W 074°00'2 3.7
2017-Nov-09 16:30N 40°42' W 074°02'2 3.3
2017-Nov-09 16:00N 40°42' W 074°00'2 0.1
2017-Nov-09 01:51N 40°40' W 074°01'2 5.9
2017-Nov-09 01:30N 40°42' W 074°00'2 3.4
2017-Nov-09 01:00N 40°42' W 074°02'2 3.1
2017-Nov-09 00:28N 40°42' W 074°00'0 0.0
2017-Nov-09 00:00N 40°42' W 074°00'0 0.0
2017-Nov-08 23:09N 40°42' W 074°00'1 2.2
2017-Nov-08 22:51N 40°42' W 074°01'1 2.7
2017-Nov-08 22:30N 40°42' W 074°02'1 1.0
2017-Nov-08 21:23N 40°42' W 074°01'1 2.9
2017-Nov-08 21:00N 40°42' W 074°02'1 1.7
2017-Nov-08 20:13N 40°42' W 074°00'0 0.0
2017-Nov-08 20:00N 40°42' W 074°00'1 2.9
2017-Nov-08 19:30N 40°42' W 074°02'  
Track history (hours):
 
Tides and Currents Weather Stations Pressure Air Temp Water Temp Dewpoint Dewpoint Depression Visibility Wind Speed Wind Dir Waves Ship Positions

Marian S Heiskell

Owner: NYCL Acquisition LLC, Brooklyn, NY. More information available from US FCC via Universal Licensing System and Coast Guard Vessel Documentation Center.

Last reported at 2017-Nov-18 19:30 UTC. Time now 2017-Nov-18 19:34 UTC.
Position N 40°40' W 074°01'.

Type: Passenger vessel. MMSI: 367187770.

Date/timePositionNaut miles runAvg speedWind from/ knotsBaromVisibWave heightAir tempDewpointWater temp
2017-Nov-18 19:30N 40°40' W 074°01'2 3.5
2017-Nov-18 18:56N 40°42' W 074°00'2 4.6
2017-Nov-18 18:30N 40°40' W 074°01'1 2.0
2017-Nov-18 18:00N 40°41' W 074°01'1 1.7
2017-Nov-18 17:30N 40°41' W 074°01'0 0.6
2017-Nov-18 16:59N 40°40' W 074°01'2 4.0
2017-Nov-18 16:30N 40°42' W 074°00'2 0.1
2017-Nov-17 13:17N 40°40' W 074°01'0 0.0
2017-Nov-16 23:49N 40°40' W 074°01'2 5.7
2017-Nov-16 23:30N 40°42' W 074°01'2 4.0
2017-Nov-16 23:00N 40°44' W 074°01'2 4.0
2017-Nov-16 22:30N 40°42' W 074°00'3 6.8
2017-Nov-16 22:00N 40°46' W 074°00'3 6.8
2017-Nov-16 21:30N 40°42' W 073°60'1 2.8
2017-Nov-16 21:00N 40°43' W 074°01'2 4.4
2017-Nov-16 20:30N 40°41' W 074°02'1 2.9
2017-Nov-16 20:01N 40°42' W 074°01'1 2.6
2017-Nov-16 19:30N 40°41' W 074°02'2 3.9
2017-Nov-16 19:00N 40°42' W 074°00'3 6.8
2017-Nov-16 18:30N 40°46' W 074°00'3 6.9
2017-Nov-16 18:00N 40°42' W 073°60'2 3.1
2017-Nov-16 17:30N 40°43' W 074°01'2 4.8
2017-Nov-16 17:00N 40°41' W 074°03'2 2.7
2017-Nov-16 16:26N 40°42' W 074°01'1 2.7
2017-Nov-16 16:00N 40°43' W 074°01'2 2.4
2017-Nov-16 15:22N 40°42' W 074°01'4 9.9
2017-Nov-16 14:59N 40°46' W 074°00'5 0.4
2017-Nov-16 01:46N 40°40' W 074°01'2 8.0
2017-Nov-16 01:30N 40°42' W 074°00'1 2.9
2017-Nov-16 01:00N 40°42' W 074°02'1 2.8
2017-Nov-16 00:29N 40°42' W 074°00'2 0.9
2017-Nov-15 22:05N 40°40' W 074°01'112.8
2017-Nov-15 22:00N 40°41' W 074°01'1 1.8
2017-Nov-15 21:29N 40°42' W 074°00'1 2.9
2017-Nov-15 21:00N 40°42' W 074°02'1 2.8
2017-Nov-15 20:30N 40°42' W 074°00'0 0.2
2017-Nov-15 19:53N 40°42' W 074°00'1 3.4
2017-Nov-15 19:31N 40°43' W 074°02'1 1.2
2017-Nov-15 18:26N 40°42' W 074°00'1 3.2
2017-Nov-15 18:00N 40°42' W 074°02'1 2.7
2017-Nov-15 17:30N 40°42' W 074°00'0 0.0
2017-Nov-15 16:57N 40°42' W 074°00'1 3.4
2017-Nov-15 16:30N 40°42' W 074°02'1 2.9
2017-Nov-15 15:59N 40°42' W 074°00'1 1.1
2017-Nov-15 15:30N 40°42' W 074°00'  
2017-Nov-13 02:00N 40°40' W 074°01'1 1.3
2017-Nov-13 01:30N 40°41' W 074°01'0 0.8
2017-Nov-13 01:00N 40°41' W 074°01'1 1.8
2017-Nov-13 00:30N 40°40' W 074°01'2 4.0
2017-Nov-13 00:00N 40°42' W 074°00'2 4.0
2017-Nov-12 23:30N 40°40' W 074°01'1 2.1
2017-Nov-12 23:00N 40°41' W 074°01'0 0.5
2017-Nov-12 22:30N 40°41' W 074°01'1 1.6
2017-Nov-12 21:58N 40°40' W 074°01'2 4.3
2017-Nov-12 21:30N 40°42' W 074°00'1 2.6
2017-Nov-12 21:00N 40°41' W 074°01'1 1.5
2017-Nov-12 20:30N 40°40' W 074°01'2 3.3
2017-Nov-12 19:56N 40°42' W 074°00'2 4.1
2017-Nov-12 19:30N 40°40' W 074°01'2 3.8
2017-Nov-12 18:59N 40°42' W 074°00'2 4.1
2017-Nov-12 18:30N 40°40' W 074°01'1 2.2
2017-Nov-12 18:00N 40°41' W 074°01'0 0.1
2017-Nov-12 17:30N 40°41' W 074°01'1 1.7
2017-Nov-12 17:00N 40°40' W 074°01'2 3.2
2017-Nov-12 16:26N 40°42' W 074°00'2 0.1
2017-Nov-11 16:32N 40°40' W 074°01'0 4.0
2017-Nov-11 16:30N 40°40' W 074°01'0 0.1
2017-Nov-11 14:49N 40°40' W 074°01'0 0.0
2017-Nov-10 01:48N 40°40' W 074°01'2 7.2
2017-Nov-10 01:31N 40°42' W 074°00'1 3.0
2017-Nov-10 01:01N 40°42' W 074°02'1 2.9
2017-Nov-10 00:30N 40°42' W 074°00'0 0.0
2017-Nov-10 00:00N 40°42' W 074°00'0 0.0
2017-Nov-09 23:29N 40°42' W 074°00'0 0.0
2017-Nov-09 22:59N 40°42' W 074°00'2 3.8
2017-Nov-09 22:30N 40°42' W 074°02'2 3.7
2017-Nov-09 22:00N 40°42' W 074°00'0 0.2
2017-Nov-09 21:25N 40°42' W 074°00'2 5.3
2017-Nov-09 21:00N 40°41' W 074°03'2 4.2
2017-Nov-09 20:30N 40°42' W 074°00'0 0.0
2017-Nov-09 20:00N 40°42' W 074°00'2 4.3
2017-Nov-09 19:30N 40°41' W 074°03'2 4.1
2017-Nov-09 18:59N 40°42' W 074°00'0 0.1
2017-Nov-09 18:30N 40°42' W 074°00'2 3.9
2017-Nov-09 18:00N 40°41' W 074°02'2 1.9
2017-Nov-09 16:58N 40°42' W 074°00'2 3.7
2017-Nov-09 16:30N 40°42' W 074°02'2 3.3
2017-Nov-09 16:00N 40°42' W 074°00'2 0.1
2017-Nov-09 01:51N 40°40' W 074°01'2 5.9
2017-Nov-09 01:30N 40°42' W 074°00'2 3.4
2017-Nov-09 01:00N 40°42' W 074°02'2 3.1
2017-Nov-09 00:28N 40°42' W 074°00'0 0.0
2017-Nov-09 00:00N 40°42' W 074°00'0 0.0
2017-Nov-08 23:09N 40°42' W 074°00'1 2.2
2017-Nov-08 22:51N 40°42' W 074°01'1 2.7
2017-Nov-08 22:30N 40°42' W 074°02'1 1.0
2017-Nov-08 21:23N 40°42' W 074°01'1 2.9
2017-Nov-08 21:00N 40°42' W 074°02'1 1.7
2017-Nov-08 20:13N 40°42' W 074°00'0 0.0
2017-Nov-08 20:00N 40°42' W 074°00'1 2.9
2017-Nov-08 19:30N 40°42' W 074°02'  

Dump ship's entire track history